La rose des vents
Donnes mto: Semaine 02/05/22 - 08/05/22 (S 18)
Date Horaire Temp. E. Hum. E. P.atmo. Pluie Vent 1mn Direction Ensoleilleme Ev.Tr. Solaire P. de rose Temp au vent Rafales
02/05/2022 00:00 12,0 C 94 % 1014,5 hPa 0,0 mm 0,0 km/h (0 Bft) O-NO 0,00 h 0,000 mm 0 W/m 11,0 C 12,0 C 0,1 km/h (0 Bft)
02/05/2022 01:00 11,6 C 94 % 1014,3 hPa 0,0 mm 0,0 km/h (0 Bft) N 0,00 h 0,000 mm 0 W/m 10,6 C 11,6 C 0,0 km/h (0 Bft)
02/05/2022 02:00 11,3 C 94 % 1013,9 hPa 0,0 mm 0,0 km/h (0 Bft) N 0,00 h 0,000 mm 0 W/m 10,3 C 11,3 C 0,0 km/h (0 Bft)
02/05/2022 03:00 11,0 C 93 % 1013,7 hPa 0,0 mm 0,2 km/h (0 Bft) O-NO 0,00 h 0,000 mm 0 W/m 9,9 C 11,0 C 0,6 km/h (0 Bft)
02/05/2022 04:00 10,7 C 91 % 1013,7 hPa 0,0 mm 0,0 km/h (0 Bft) N 0,00 h 0,000 mm 0 W/m 9,4 C 10,7 C 0,1 km/h (0 Bft)
02/05/2022 05:00 10,4 C 90 % 1013,3 hPa 0,2 mm 0,0 km/h (0 Bft) O-NO 0,00 h 0,000 mm 0 W/m 8,9 C 10,4 C 0,2 km/h (0 Bft)
02/05/2022 06:00 10,0 C 90 % 1013,3 hPa 0,0 mm 0,2 km/h (0 Bft) O-NO 0,00 h 0,000 mm 12 W/m 8,4 C 10,0 C 1,1 km/h (0 Bft)
02/05/2022 07:00 10,6 C 89 % 1013,4 hPa 0,0 mm 0,1 km/h (0 Bft) O-NO 0,00 h 0,000 mm 43 W/m 8,7 C 10,6 C 0,7 km/h (0 Bft)
02/05/2022 08:00 13,2 C 84 % 1013,5 hPa 0,0 mm 0,0 km/h (0 Bft) N 0,12 h 0,025 mm 141 W/m 10,6 C 13,2 C 0,0 km/h (0 Bft)
02/05/2022 09:00 16,6 C 77 % 1013,5 hPa 0,0 mm 0,0 km/h (0 Bft) N 1,00 h 0,076 mm 426 W/m 12,4 C 16,6 C 0,0 km/h (0 Bft)
02/05/2022 10:00 19,3 C 63 % 1013,4 hPa 0,0 mm 0,2 km/h (0 Bft) S-SE 1,00 h 0,229 mm 593 W/m 12,0 C 19,3 C 1,0 km/h (0 Bft)
02/05/2022 11:00 21,4 C 57 % 1013,1 hPa 0,0 mm 1,1 km/h (1 Bft) SE 1,00 h 0,330 mm 713 W/m 12,4 C 21,4 C 3,5 km/h (1 Bft)
02/05/2022 12:00 22,1 C 55 % 1013,0 hPa 0,0 mm 5,1 km/h (1 Bft) E 1,00 h 0,432 mm 791 W/m 12,7 C 22,1 C 10,0 km/h (2 Bft)
02/05/2022 13:00 22,2 C 56 % 1013,0 hPa 0,0 mm 3,8 km/h (1 Bft) E 1,00 h 0,508 mm 819 W/m 13,0 C 22,2 C 8,3 km/h (2 Bft)
02/05/2022 14:00 22,1 C 49 % 1012,8 hPa 0,0 mm 4,1 km/h (1 Bft) S 1,00 h 0,508 mm 790 W/m 10,8 C 22,1 C 9,4 km/h (2 Bft)
02/05/2022 15:00 22,5 C 52 % 1012,7 hPa 0,0 mm 3,2 km/h (1 Bft) S 1,00 h 0,508 mm 724 W/m 12,1 C 22,5 C 8,3 km/h (2 Bft)
02/05/2022 16:00 21,7 C 59 % 1012,6 hPa 0,0 mm 2,5 km/h (1 Bft) S 1,00 h 0,457 mm 557 W/m 13,2 C 21,7 C 6,2 km/h (2 Bft)
02/05/2022 17:00 20,9 C 57 % 1012,6 hPa 0,0 mm 0,5 km/h (0 Bft) S 0,98 h 0,356 mm 390 W/m 11,9 C 20,9 C 2,3 km/h (1 Bft)
02/05/2022 18:00 19,7 C 65 % 1012,5 hPa 0,0 mm 0,1 km/h (0 Bft) E-SE 0,55 h 0,229 mm 202 W/m 12,9 C 19,7 C 1,2 km/h (1 Bft)
02/05/2022 19:00 18,0 C 70 % 1012,5 hPa 0,0 mm 0,0 km/h (0 Bft) N 0,00 h 0,127 mm 48 W/m 12,4 C 18,0 C 0,0 km/h (0 Bft)
02/05/2022 20:00 16,6 C 73 % 1012,8 hPa 0,0 mm 0,0 km/h (0 Bft) N 0,00 h 0,025 mm 11 W/m 11,7 C 16,6 C 0,0 km/h (0 Bft)
02/05/2022 21:00 15,2 C 78 % 1012,8 hPa 0,0 mm 0,0 km/h (0 Bft) N 0,00 h 0,000 mm 0 W/m 11,3 C 15,2 C 0,0 km/h (0 Bft)
02/05/2022 22:00 14,5 C 85 % 1013,2 hPa 0,0 mm 0,0 km/h (0 Bft) N 0,00 h 0,025 mm 0 W/m 11,9 C 14,5 C 0,0 km/h (0 Bft)
02/05/2022 23:00 14,5 C 85 % 1013,1 hPa 0,0 mm 0,0 km/h (0 Bft) N 0,00 h 0,025 mm 0 W/m 12,0 C 14,5 C 0,0 km/h (0 Bft)
03/05/2022 00:00 14,5 C 80 % 1013,2 hPa 0,0 mm 0,0 km/h (0 Bft) N 0,00 h 0,025 mm 0 W/m 11,1 C 14,5 C 0,0 km/h (0 Bft)
03/05/2022 01:00 14,4 C 81 % 1013,0 hPa 0,0 mm 0,1 km/h (0 Bft) E-SE 0,00 h 0,025 mm 0 W/m 11,2 C 14,4 C 0,3 km/h (0 Bft)
03/05/2022 02:00 14,5 C 80 % 1012,7 hPa 0,0 mm 0,0 km/h (0 Bft) N 0,00 h 0,025 mm 0 W/m 11,0 C 14,5 C 0,0 km/h (0 Bft)
03/05/2022 03:00 14,1 C 79 % 1012,4 hPa 0,0 mm 0,0 km/h (0 Bft) N 0,00 h 0,025 mm 0 W/m 10,4 C 14,1 C 0,0 km/h (0 Bft)
03/05/2022 04:00 13,5 C 79 % 1012,5 hPa 0,0 mm 0,0 km/h (0 Bft) N 0,00 h 0,025 mm 0 W/m 9,9 C 13,5 C 0,0 km/h (0 Bft)
03/05/2022 05:00 13,2 C 79 % 1012,4 hPa 0,0 mm 0,0 km/h (0 Bft) N 0,00 h 0,025 mm 0 W/m 9,7 C 13,2 C 0,0 km/h (0 Bft)
03/05/2022 06:00 12,9 C 80 % 1012,5 hPa 0,0 mm 0,0 km/h (0 Bft) N 0,00 h 0,025 mm 15 W/m 9,6 C 12,9 C 0,0 km/h (0 Bft)
03/05/2022 07:00 13,1 C 82 % 1013,0 hPa 0,0 mm 0,0 km/h (0 Bft) N 0,00 h 0,000 mm 77 W/m 10,1 C 13,1 C 0,0 km/h (0 Bft)
03/05/2022 08:00 14,8 C 80 % 1013,4 hPa 0,0 mm 0,1 km/h (0 Bft) E-SE 0,00 h 0,051 mm 164 W/m 11,3 C 14,8 C 0,2 km/h (0 Bft)
03/05/2022 09:00 16,6 C 74 % 1013,4 hPa 0,0 mm 0,0 km/h (0 Bft) N 0,08 h 0,076 mm 231 W/m 11,9 C 16,6 C 0,0 km/h (0 Bft)
03/05/2022 10:00 18,5 C 72 % 1013,6 hPa 0,0 mm 0,3 km/h (0 Bft) E-SE 0,75 h 0,127 mm 465 W/m 13,2 C 18,5 C 1,7 km/h (1 Bft)
03/05/2022 11:00 19,9 C 72 % 1014,0 hPa 0,0 mm 3,0 km/h (1 Bft) E-SE 0,93 h 0,254 mm 560 W/m 14,6 C 19,9 C 7,6 km/h (2 Bft)
03/05/2022 12:00 19,7 C 67 % 1014,4 hPa 0,0 mm 2,1 km/h (1 Bft) E 0,78 h 0,330 mm 521 W/m 13,4 C 19,7 C 5,8 km/h (2 Bft)
03/05/2022 13:00 19,8 C 64 % 1014,4 hPa 0,0 mm 2,5 km/h (1 Bft) E 0,95 h 0,305 mm 567 W/m 12,7 C 19,8 C 6,1 km/h (2 Bft)
03/05/2022 14:00 20,7 C 60 % 1014,4 hPa 0,0 mm 1,7 km/h (1 Bft) E 0,75 h 0,330 mm 552 W/m 12,6 C 20,7 C 5,5 km/h (1 Bft)
03/05/2022 15:00 19,7 C 66 % 1014,5 hPa 0,0 mm 0,8 km/h (0 Bft) E 0,00 h 0,330 mm 327 W/m 13,1 C 19,7 C 3,0 km/h (1 Bft)
03/05/2022 16:00 18,9 C 71 % 1014,2 hPa 0,0 mm 0,1 km/h (0 Bft) E 0,00 h 0,203 mm 277 W/m 13,6 C 18,9 C 0,4 km/h (0 Bft)
03/05/2022 17:00 18,8 C 74 % 1013,9 hPa 0,0 mm 0,0 km/h (0 Bft) N 0,00 h 0,152 mm 191 W/m 13,9 C 18,8 C 0,1 km/h (0 Bft)
03/05/2022 18:00 18,5 C 77 % 1013,7 hPa 0,0 mm 0,0 km/h (0 Bft) N 0,00 h 0,102 mm 109 W/m 14,3 C 18,5 C 0,2 km/h (0 Bft)
03/05/2022 19:00 18,2 C 78 % 1013,5 hPa 0,0 mm 0,0 km/h (0 Bft) N 0,00 h 0,076 mm 57 W/m 14,3 C 18,2 C 0,0 km/h (0 Bft)
03/05/2022 20:00 17,3 C 78 % 1014,0 hPa 0,0 mm 0,0 km/h (0 Bft) N 0,05 h 0,025 mm 16 W/m 13,4 C 17,3 C 0,0 km/h (0 Bft)
03/05/2022 21:00 16,0 C 83 % 1014,4 hPa 0,0 mm 0,0 km/h (0 Bft) N 0,00 h 0,000 mm 0 W/m 13,2 C 16,0 C 0,0 km/h (0 Bft)
03/05/2022 22:00 14,9 C 82 % 1014,8 hPa 0,0 mm 0,0 km/h (0 Bft) N 0,00 h 0,025 mm 0 W/m 11,9 C 14,9 C 0,0 km/h (0 Bft)
03/05/2022 23:00 14,4 C 82 % 1015,0 hPa 0,0 mm 0,0 km/h (0 Bft) N 0,00 h 0,025 mm 0 W/m 11,5 C 14,4 C 0,0 km/h (0 Bft)
04/05/2022 00:00 13,6 C 76 % 1015,3 hPa 0,0 mm 0,0 km/h (0 Bft) N 0,00 h 0,025 mm 0 W/m 9,3 C 13,6 C 0,0 km/h (0 Bft)
04/05/2022 01:00 12,8 C 78 % 1015,5 hPa 0,0 mm 0,0 km/h (0 Bft) N 0,00 h 0,025 mm 0 W/m 9,1 C 12,8 C 0,0 km/h (0 Bft)
04/05/2022 02:00 12,4 C 77 % 1015,4 hPa 0,0 mm 0,6 km/h (0 Bft) E 0,00 h 0,025 mm 0 W/m 8,4 C 12,4 C 2,6 km/h (1 Bft)
04/05/2022 03:00 12,7 C 74 % 1015,2 hPa 0,0 mm 0,0 km/h (0 Bft) N 0,00 h 0,025 mm 0 W/m 8,1 C 12,7 C 0,1 km/h (0 Bft)
04/05/2022 04:00 12,4 C 73 % 1015,3 hPa 0,0 mm 0,0 km/h (0 Bft) N 0,00 h 0,025 mm 0 W/m 7,7 C 12,4 C 0,1 km/h (0 Bft)
04/05/2022 05:00 12,2 C 73 % 1015,4 hPa 0,0 mm 0,0 km/h (0 Bft) N 0,00 h 0,025 mm 0 W/m 7,5 C 12,2 C 0,1 km/h (0 Bft)
04/05/2022 06:00 12,0 C 73 % 1015,6 hPa 0,0 mm 0,0 km/h (0 Bft) E 0,00 h 0,000 mm 11 W/m 7,3 C 12,0 C 0,4 km/h (0 Bft)
04/05/2022 07:00 12,5 C 73 % 1015,7 hPa 0,0 mm 0,1 km/h (0 Bft) E 0,00 h 0,000 mm 25 W/m 7,8 C 12,5 C 0,6 km/h (0 Bft)
04/05/2022 08:00 14,3 C 73 % 1016,3 hPa 0,0 mm 0,0 km/h (0 Bft) E 0,17 h 0,025 mm 104 W/m 9,6 C 14,3 C 0,0 km/h (0 Bft)
04/05/2022 09:00 17,8 C 62 % 1016,8 hPa 0,0 mm 0,2 km/h (0 Bft) E 1,00 h 0,051 mm 457 W/m 10,4 C 17,8 C 0,8 km/h (0 Bft)
04/05/2022 10:00 20,6 C 55 % 1016,9 hPa 0,0 mm 2,3 km/h (1 Bft) E-SE 1,00 h 0,254 mm 604 W/m 11,2 C 20,6 C 5,9 km/h (2 Bft)
04/05/2022 11:00 21,7 C 51 % 1017,2 hPa 0,0 mm 3,9 km/h (1 Bft) E 1,00 h 0,381 mm 726 W/m 11,2 C 21,7 C 9,3 km/h (2 Bft)
04/05/2022 12:00 21,7 C 54 % 1017,1 hPa 0,0 mm 4,9 km/h (1 Bft) E 1,00 h 0,457 mm 802 W/m 11,9 C 21,7 C 9,6 km/h (2 Bft)
04/05/2022 13:00 21,5 C 56 % 1016,7 hPa 0,0 mm 4,8 km/h (1 Bft) E 1,00 h 0,508 mm 829 W/m 12,3 C 21,5 C 10,0 km/h (2 Bft)
04/05/2022 14:00 21,7 C 59 % 1016,4 hPa 0,0 mm 3,9 km/h (1 Bft) E 1,00 h 0,508 mm 801 W/m 13,4 C 21,7 C 8,2 km/h (2 Bft)
04/05/2022 15:00 21,1 C 68 % 1016,1 hPa 0,0 mm 4,5 km/h (1 Bft) E 1,00 h 0,508 mm 720 W/m 15,0 C 21,1 C 10,0 km/h (2 Bft)
04/05/2022 16:00 21,3 C 66 % 1015,8 hPa 0,0 mm 2,7 km/h (1 Bft) E 1,00 h 0,432 mm 601 W/m 14,5 C 21,3 C 6,7 km/h (2 Bft)
04/05/2022 17:00 20,8 C 65 % 1015,9 hPa 0,0 mm 1,0 km/h (0 Bft) E-SE 0,87 h 0,356 mm 401 W/m 13,9 C 20,8 C 3,2 km/h (1 Bft)
04/05/2022 18:00 19,7 C 70 % 1016,0 hPa 0,0 mm 0,8 km/h (0 Bft) E-SE 0,33 h 0,229 mm 179 W/m 14,1 C 19,7 C 2,6 km/h (1 Bft)
04/05/2022 19:00 17,6 C 81 % 1016,4 hPa 0,0 mm 0,1 km/h (0 Bft) E-SE 0,00 h 0,102 mm 53 W/m 14,3 C 17,6 C 0,5 km/h (0 Bft)
04/05/2022 20:00 16,2 C 85 % 1016,6 hPa 0,0 mm 0,0 km/h (0 Bft) N 0,00 h 0,025 mm 15 W/m 13,7 C 16,2 C 0,0 km/h (0 Bft)
04/05/2022 21:00 15,3 C 87 % 1016,9 hPa 0,0 mm 0,0 km/h (0 Bft) N 0,00 h 0,000 mm 0 W/m 13,1 C 15,3 C 0,0 km/h (0 Bft)
04/05/2022 22:00 14,9 C 89 % 1017,4 hPa 0,0 mm 0,0 km/h (0 Bft) N 0,00 h 0,000 mm 0 W/m 13,1 C 14,9 C 0,0 km/h (0 Bft)
04/05/2022 23:00 14,4 C 90 % 1017,4 hPa 0,0 mm 0,0 km/h (0 Bft) N 0,00 h 0,000 mm 0 W/m 12,7 C 14,4 C 0,0 km/h (0 Bft)
05/05/2022 00:00 13,9 C 91 % 1017,5 hPa 0,0 mm 0,0 km/h (0 Bft) N 0,00 h 0,000 mm 0 W/m 12,4 C 13,9 C 0,0 km/h (0 Bft)
05/05/2022 01:00 13,4 C 89 % 1017,1 hPa 0,0 mm 0,0 km/h (0 Bft) N 0,00 h 0,000 mm 0 W/m 11,7 C 13,4 C 0,0 km/h (0 Bft)
05/05/2022 02:00 13,2 C 87 % 1016,6 hPa 0,0 mm 0,0 km/h (0 Bft) N 0,00 h 0,000 mm 0 W/m 11,1 C 13,2 C 0,0 km/h (0 Bft)
05/05/2022 03:00 12,7 C 87 % 1016,8 hPa 0,0 mm 0,0 km/h (0 Bft) N 0,00 h 0,000 mm 0 W/m 10,7 C 12,7 C 0,0 km/h (0 Bft)
05/05/2022 04:00 12,6 C 88 % 1016,6 hPa 0,0 mm 0,0 km/h (0 Bft) N 0,00 h 0,000 mm 0 W/m 10,7 C 12,6 C 0,0 km/h (0 Bft)
05/05/2022 05:00 12,7 C 90 % 1016,7 hPa 0,0 mm 0,0 km/h (0 Bft) N 0,00 h 0,000 mm 0 W/m 11,2 C 12,7 C 0,0 km/h (0 Bft)
05/05/2022 06:00 13,0 C 90 % 1017,0 hPa 0,0 mm 0,0 km/h (0 Bft) N 0,00 h 0,000 mm 9 W/m 11,4 C 13,0 C 0,1 km/h (0 Bft)
05/05/2022 07:00 13,3 C 88 % 1017,3 hPa 0,0 mm 0,0 km/h (0 Bft) N 0,00 h 0,000 mm 34 W/m 11,3 C 13,3 C 0,0 km/h (0 Bft)
05/05/2022 08:00 14,1 C 88 % 1017,7 hPa 0,0 mm 0,0 km/h (0 Bft) N 0,00 h 0,025 mm 82 W/m 12,1 C 14,1 C 0,0 km/h (0 Bft)
05/05/2022 09:00 15,1 C 84 % 1017,7 hPa 0,0 mm 0,0 km/h (0 Bft) N 0,00 h 0,051 mm 132 W/m 12,3 C 15,1 C 0,0 km/h (0 Bft)
05/05/2022 10:00 16,3 C 77 % 1017,3 hPa 0,0 mm 0,0 km/h (0 Bft) N 0,00 h 0,076 mm 183 W/m 12,3 C 16,3 C 0,0 km/h (0 Bft)
05/05/2022 11:00 17,3 C 75 % 1017,3 hPa 0,0 mm 0,1 km/h (0 Bft) E-SE 0,00 h 0,102 mm 200 W/m 12,7 C 17,3 C 0,5 km/h (0 Bft)
05/05/2022 12:00 18,5 C 68 % 1017,2 hPa 0,0 mm 0,5 km/h (0 Bft) NE 0,33 h 0,102 mm 425 W/m 12,5 C 18,5 C 2,6 km/h (1 Bft)
05/05/2022 13:00 19,9 C 64 % 1016,7 hPa 0,0 mm 2,4 km/h (1 Bft) E 0,50 h 0,254 mm 385 W/m 12,8 C 19,9 C 7,8 km/h (2 Bft)
05/05/2022 14:00 17,1 C 73 % 1016,8 hPa 0,0 mm 3,3 km/h (1 Bft) E 0,15 h 0,229 mm 228 W/m 12,1 C 17,1 C 10,5 km/h (2 Bft)
05/05/2022 15:00 17,5 C 75 % 1016,8 hPa 0,0 mm 3,1 km/h (1 Bft) E 0,08 h 0,152 mm 265 W/m 13,1 C 17,5 C 9,6 km/h (2 Bft)
05/05/2022 16:00 16,1 C 80 % 1016,7 hPa 0,0 mm 3,6 km/h (1 Bft) E-SE 0,00 h 0,152 mm 221 W/m 12,7 C 16,1 C 9,9 km/h (2 Bft)
05/05/2022 17:00 14,9 C 87 % 1017,0 hPa 0,0 mm 1,9 km/h (1 Bft) E 0,00 h 0,127 mm 99 W/m 12,9 C 14,9 C 5,8 km/h (2 Bft)
05/05/2022 18:00 14,4 C 89 % 1017,0 hPa 0,0 mm 0,5 km/h (0 Bft) E 0,00 h 0,051 mm 83 W/m 12,5 C 14,4 C 2,8 km/h (1 Bft)
05/05/2022 19:00 14,2 C 89 % 1016,7 hPa 0,0 mm 0,6 km/h (0 Bft) E 0,00 h 0,051 mm 44 W/m 12,4 C 14,2 C 2,4 km/h (1 Bft)
05/05/2022 20:00 13,9 C 89 % 1016,4 hPa 0,0 mm 0,0 km/h (0 Bft) N 0,37 h 0,025 mm 26 W/m 12,1 C 13,9 C 0,0 km/h (0 Bft)
05/05/2022 21:00 13,4 C 90 % 1016,5 hPa 0,0 mm 0,0 km/h (0 Bft) N 0,00 h 0,000 mm 0 W/m 11,8 C 13,4 C 0,0 km/h (0 Bft)
05/05/2022 22:00 13,1 C 91 % 1016,7 hPa 0,0 mm 0,0 km/h (0 Bft) N 0,00 h 0,000 mm 0 W/m 11,7 C 13,1 C 0,0 km/h (0 Bft)
05/05/2022 23:00 13,0 C 91 % 1016,5 hPa 0,0 mm 0,0 km/h (0 Bft) N 0,00 h 0,000 mm 0 W/m 11,6 C 13,0 C 0,0 km/h (0 Bft)
06/05/2022 00:00 13,1 C 92 % 1016,0 hPa 0,0 mm 1,1 km/h (1 Bft) E-SE 0,00 h 0,000 mm 0 W/m 11,8 C 13,1 C 3,6 km/h (1 Bft)
06/05/2022 01:00 13,1 C 92 % 1015,3 hPa 0,0 mm 1,7 km/h (1 Bft) O 0,00 h 0,000 mm 0 W/m 11,8 C 13,1 C 4,8 km/h (1 Bft)
06/05/2022 02:00 12,9 C 92 % 1014,8 hPa 0,0 mm 0,5 km/h (0 Bft) O-SO 0,00 h 0,000 mm 0 W/m 11,6 C 12,9 C 1,8 km/h (1 Bft)
06/05/2022 03:00 12,8 C 91 % 1014,4 hPa 0,0 mm 0,0 km/h (0 Bft) N 0,00 h 0,000 mm 0 W/m 11,3 C 12,8 C 0,0 km/h (0 Bft)
06/05/2022 04:00 12,3 C 92 % 1013,9 hPa 0,0 mm 0,0 km/h (0 Bft) N 0,00 h 0,000 mm 0 W/m 11,0 C 12,3 C 0,0 km/h (0 Bft)
06/05/2022 05:00 12,1 C 93 % 1013,5 hPa 0,0 mm 0,0 km/h (0 Bft) N 0,00 h 0,000 mm 0 W/m 11,0 C 12,1 C 0,0 km/h (0 Bft)
06/05/2022 06:00 12,0 C 93 % 1013,4 hPa 0,0 mm 0,0 km/h (0 Bft) N 0,00 h 0,000 mm 15 W/m 10,9 C 12,0 C 0,0 km/h (0 Bft)
06/05/2022 07:00 12,1 C 93 % 1013,5 hPa 0,0 mm 0,2 km/h (0 Bft) O 0,00 h 0,000 mm 25 W/m 10,9 C 12,1 C 1,0 km/h (0 Bft)
06/05/2022 08:00 13,0 C 92 % 1013,6 hPa 0,0 mm 0,0 km/h (0 Bft) O 0,00 h 0,025 mm 102 W/m 11,6 C 13,0 C 0,1 km/h (0 Bft)
06/05/2022 09:00 14,4 C 86 % 1013,8 hPa 0,0 mm 0,1 km/h (0 Bft) O 0,00 h 0,051 mm 206 W/m 12,0 C 14,4 C 0,2 km/h (0 Bft)
06/05/2022 10:00 16,3 C 77 % 1013,7 hPa 0,0 mm 0,0 km/h (0 Bft) N 0,00 h 0,102 mm 203 W/m 12,2 C 16,3 C 0,0 km/h (0 Bft)
06/05/2022 11:00 16,9 C 74 % 1014,2 hPa 0,0 mm 0,0 km/h (0 Bft) N 0,00 h 0,102 mm 175 W/m 12,2 C 16,9 C 0,0 km/h (0 Bft)
06/05/2022 12:00 18,1 C 73 % 1014,5 hPa 0,0 mm 0,0 km/h (0 Bft) N 0,00 h 0,102 mm 278 W/m 13,2 C 18,1 C 0,0 km/h (0 Bft)
06/05/2022 13:00 19,3 C 63 % 1014,0 hPa 0,0 mm 0,4 km/h (0 Bft) O 0,02 h 0,152 mm 362 W/m 12,0 C 19,3 C 1,2 km/h (1 Bft)
06/05/2022 14:00 19,7 C 59 % 1013,9 hPa 0,0 mm 1,7 km/h (1 Bft) SO 0,00 h 0,203 mm 286 W/m 11,5 C 19,7 C 4,9 km/h (1 Bft)
06/05/2022 15:00 19,4 C 62 % 1013,6 hPa 0,0 mm 2,9 km/h (1 Bft) O-SO 0,00 h 0,178 mm 259 W/m 12,0 C 19,4 C 8,2 km/h (2 Bft)
06/05/2022 16:00 19,6 C 63 % 1013,6 hPa 0,0 mm 1,9 km/h (1 Bft) SO 0,00 h 0,178 mm 235 W/m 12,4 C 19,6 C 5,4 km/h (1 Bft)
06/05/2022 17:00 19,6 C 61 % 1013,9 hPa 0,0 mm 1,5 km/h (1 Bft) SO 0,00 h 0,152 mm 178 W/m 11,9 C 19,6 C 4,3 km/h (1 Bft)
06/05/2022 18:00 18,6 C 65 % 1014,0 hPa 0,0 mm 1,5 km/h (1 Bft) SO 0,00 h 0,127 mm 100 W/m 12,0 C 18,6 C 3,3 km/h (1 Bft)
06/05/2022 19:00 18,1 C 66 % 1014,3 hPa 0,0 mm 0,1 km/h (0 Bft) SO 0,00 h 0,076 mm 64 W/m 11,7 C 18,1 C 0,7 km/h (0 Bft)
06/05/2022 20:00 16,7 C 74 % 1015,1 hPa 0,0 mm 0,0 km/h (0 Bft) SO 0,00 h 0,051 mm 12 W/m 12,1 C 16,7 C 0,1 km/h (0 Bft)
06/05/2022 21:00 15,7 C 77 % 1015,8 hPa 0,0 mm 0,0 km/h (0 Bft) N 0,00 h 0,000 mm 0 W/m 11,6 C 15,7 C 0,0 km/h (0 Bft)
06/05/2022 22:00 14,9 C 80 % 1016,3 hPa 0,0 mm 0,0 km/h (0 Bft) N 0,00 h 0,025 mm 0 W/m 11,6 C 14,9 C 0,1 km/h (0 Bft)
06/05/2022 23:00 14,6 C 82 % 1016,3 hPa 0,0 mm 0,0 km/h (0 Bft) N 0,00 h 0,025 mm 0 W/m 11,6 C 14,6 C 0,0 km/h (0 Bft)
07/05/2022 00:00 14,4 C 83 % 1016,3 hPa 0,0 mm 0,0 km/h (0 Bft) N 0,00 h 0,025 mm 0 W/m 11,5 C 14,4 C 0,0 km/h (0 Bft)
07/05/2022 01:00 14,3 C 82 % 1015,9 hPa 0,0 mm 0,0 km/h (0 Bft) N 0,00 h 0,025 mm 0 W/m 11,3 C 14,3 C 0,0 km/h (0 Bft)
07/05/2022 02:00 14,1 C 82 % 1015,5 hPa 0,0 mm 0,0 km/h (0 Bft) N 0,00 h 0,025 mm 0 W/m 11,0 C 14,1 C 0,0 km/h (0 Bft)
07/05/2022 03:00 13,8 C 81 % 1015,2 hPa 0,0 mm 0,0 km/h (0 Bft) N 0,00 h 0,025 mm 0 W/m 10,6 C 13,8 C 0,0 km/h (0 Bft)
07/05/2022 04:00 14,0 C 78 % 1014,9 hPa 0,0 mm 0,0 km/h (0 Bft) SO 0,00 h 0,025 mm 0 W/m 10,3 C 14,0 C 0,1 km/h (0 Bft)
07/05/2022 05:00 14,0 C 75 % 1014,6 hPa 0,0 mm 0,0 km/h (0 Bft) N 0,00 h 0,025 mm 0 W/m 9,7 C 14,0 C 0,1 km/h (0 Bft)
07/05/2022 06:00 13,8 C 74 % 1014,8 hPa 0,0 mm 0,0 km/h (0 Bft) N 0,00 h 0,000 mm 11 W/m 9,3 C 13,8 C 0,1 km/h (0 Bft)
07/05/2022 07:00 13,5 C 76 % 1015,2 hPa 0,0 mm 0,0 km/h (0 Bft) N 0,00 h 0,000 mm 55 W/m 9,4 C 13,5 C 0,1 km/h (0 Bft)
07/05/2022 08:00 14,9 C 74 % 1015,6 hPa 0,0 mm 0,0 km/h (0 Bft) SO 0,00 h 0,025 mm 118 W/m 10,3 C 14,9 C 0,3 km/h (0 Bft)
07/05/2022 09:00 17,4 C 71 % 1015,6 hPa 0,0 mm 0,3 km/h (0 Bft) SO 0,38 h 0,076 mm 313 W/m 12,1 C 17,4 C 0,9 km/h (0 Bft)
07/05/2022 10:00 20,6 C 63 % 1015,7 hPa 0,0 mm 2,9 km/h (1 Bft) SO 1,00 h 0,178 mm 627 W/m 13,2 C 20,6 C 6,7 km/h (2 Bft)
07/05/2022 11:00 22,6 C 59 % 1015,6 hPa 0,0 mm 1,8 km/h (1 Bft) E 0,90 h 0,381 mm 688 W/m 14,3 C 22,6 C 5,6 km/h (1 Bft)
07/05/2022 12:00 24,0 C 54 % 1015,2 hPa 0,0 mm 4,3 km/h (1 Bft) S 1,00 h 0,432 mm 821 W/m 14,2 C 24,0 C 10,2 km/h (2 Bft)
07/05/2022 13:00 23,7 C 51 % 1015,1 hPa 0,0 mm 8,4 km/h (2 Bft) S 0,83 h 0,533 mm 800 W/m 12,9 C 23,7 C 15,5 km/h (3 Bft)
07/05/2022 14:00 22,9 C 51 % 1015,3 hPa 0,0 mm 4,5 km/h (1 Bft) S-SE 0,73 h 0,559 mm 650 W/m 12,2 C 22,9 C 10,2 km/h (2 Bft)
07/05/2022 15:00 22,4 C 52 % 1015,3 hPa 0,0 mm 5,4 km/h (1 Bft) S-SE 0,85 h 0,432 mm 621 W/m 12,1 C 22,4 C 11,5 km/h (2 Bft)
07/05/2022 16:00 22,2 C 53 % 1015,0 hPa 0,0 mm 5,8 km/h (2 Bft) S-SE 0,95 h 0,406 mm 580 W/m 12,2 C 22,2 C 11,3 km/h (2 Bft)
07/05/2022 17:00 20,7 C 56 % 1014,9 hPa 0,0 mm 5,8 km/h (2 Bft) S-SE 0,20 h 0,381 mm 241 W/m 11,6 C 20,7 C 11,1 km/h (2 Bft)
07/05/2022 18:00 20,5 C 57 % 1015,3 hPa 0,0 mm 4,9 km/h (1 Bft) S 0,63 h 0,178 mm 242 W/m 11,8 C 20,5 C 10,0 km/h (2 Bft)
07/05/2022 19:00 19,3 C 63 % 1015,5 hPa 0,0 mm 2,3 km/h (1 Bft) O-SO 0,12 h 0,178 mm 64 W/m 12,2 C 19,3 C 6,9 km/h (2 Bft)
07/05/2022 20:00 17,6 C 71 % 1015,7 hPa 0,0 mm 2,6 km/h (1 Bft) O-SO 0,00 h 0,051 mm 15 W/m 12,3 C 17,6 C 6,0 km/h (2 Bft)
07/05/2022 21:00 16,5 C 77 % 1015,9 hPa 0,0 mm 1,0 km/h (0 Bft) O-SO 0,00 h 0,025 mm 0 W/m 12,4 C 16,5 C 4,1 km/h (1 Bft)
07/05/2022 22:00 16,0 C 78 % 1015,9 hPa 0,0 mm 0,3 km/h (0 Bft) O-SO 0,00 h 0,000 mm 0 W/m 12,1 C 16,0 C 1,4 km/h (1 Bft)
07/05/2022 23:00 15,5 C 80 % 1016,0 hPa 0,0 mm 0,1 km/h (0 Bft) O-SO 0,00 h 0,025 mm 0 W/m 12,0 C 15,5 C 1,4 km/h (1 Bft)
08/05/2022 00:00 15,4 C 80 % 1015,8 hPa 0,0 mm 0,3 km/h (0 Bft) O-SO 0,00 h 0,025 mm 0 W/m 11,9 C 15,4 C 2,1 km/h (1 Bft)
08/05/2022 01:00 15,2 C 79 % 1015,7 hPa 0,0 mm 0,8 km/h (0 Bft) O-SO 0,00 h 0,025 mm 0 W/m 11,5 C 15,2 C 3,2 km/h (1 Bft)
08/05/2022 02:00 15,1 C 78 % 1015,5 hPa 0,0 mm 0,0 km/h (0 Bft) N 0,00 h 0,025 mm 0 W/m 11,3 C 15,1 C 0,0 km/h (0 Bft)
08/05/2022 03:00 15,3 C 77 % 1015,4 hPa 0,0 mm 0,0 km/h (0 Bft) N 0,00 h 0,025 mm 0 W/m 11,2 C 15,3 C 0,0 km/h (0 Bft)
08/05/2022 04:00 15,2 C 77 % 1015,6 hPa 0,0 mm 0,0 km/h (0 Bft) N 0,00 h 0,025 mm 0 W/m 11,2 C 15,2 C 0,0 km/h (0 Bft)
08/05/2022 05:00 15,1 C 78 % 1015,5 hPa 0,0 mm 0,0 km/h (0 Bft) N 0,00 h 0,025 mm 0 W/m 11,3 C 15,1 C 0,0 km/h (0 Bft)
08/05/2022 06:00 14,9 C 80 % 1015,6 hPa 0,0 mm 0,0 km/h (0 Bft) O-SO 0,00 h 0,000 mm 12 W/m 11,5 C 14,9 C 0,3 km/h (0 Bft)
08/05/2022 07:00 15,2 C 79 % 1016,0 hPa 0,0 mm 0,0 km/h (0 Bft) N 0,00 h 0,000 mm 67 W/m 11,7 C 15,2 C 0,4 km/h (0 Bft)
08/05/2022 08:00 16,8 C 76 % 1016,2 hPa 0,0 mm 0,0 km/h (0 Bft) N 0,00 h 0,051 mm 133 W/m 12,5 C 16,8 C 0,1 km/h (0 Bft)
08/05/2022 09:00 18,4 C 69 % 1016,6 hPa 0,0 mm 0,0 km/h (0 Bft) N 0,00 h 0,076 mm 182 W/m 12,6 C 18,4 C 0,1 km/h (0 Bft)
08/05/2022 10:00 19,4 C 70 % 1017,1 hPa 0,0 mm 0,3 km/h (0 Bft) O-SO 0,00 h 0,102 mm 279 W/m 13,7 C 19,4 C 1,5 km/h (1 Bft)
08/05/2022 11:00 18,6 C 75 % 1017,7 hPa 0,0 mm 0,7 km/h (0 Bft) E-SE 0,00 h 0,152 mm 209 W/m 14,1 C 18,6 C 2,7 km/h (1 Bft)
08/05/2022 12:00 18,3 C 82 % 1018,1 hPa 0,2 mm 0,0 km/h (0 Bft) N 0,00 h 0,127 mm 292 W/m 15,2 C 18,3 C 0,0 km/h (0 Bft)
08/05/2022 13:00 19,2 C 78 % 1018,0 hPa 0,0 mm 0,0 km/h (0 Bft) N 0,00 h 0,152 mm 267 W/m 15,2 C 19,2 C 0,0 km/h (0 Bft)
08/05/2022 14:00 20,2 C 70 % 1017,7 hPa 0,0 mm 0,3 km/h (0 Bft) SO 0,68 h 0,152 mm 627 W/m 14,4 C 20,2 C 1,2 km/h (1 Bft)
08/05/2022 15:00 23,0 C 53 % 1017,2 hPa 0,0 mm 1,0 km/h (0 Bft) E-SE 1,00 h 0,381 mm 800 W/m 12,9 C 23,0 C 3,5 km/h (1 Bft)
08/05/2022 16:00 22,6 C 50 % 1017,0 hPa 0,0 mm 0,3 km/h (0 Bft) E 0,12 h 0,483 mm 181 W/m 11,5 C 22,6 C 1,3 km/h (1 Bft)
08/05/2022 17:00 20,5 C 57 % 1017,2 hPa 0,0 mm 0,0 km/h (0 Bft) N 0,12 h 0,127 mm 121 W/m 11,6 C 20,5 C 0,0 km/h (0 Bft)
08/05/2022 18:00 20,3 C 57 % 1017,1 hPa 0,0 mm 0,0 km/h (0 Bft) N 0,08 h 0,076 mm 109 W/m 11,5 C 20,3 C 0,0 km/h (0 Bft)
08/05/2022 19:00 20,3 C 60 % 1017,1 hPa 0,0 mm 0,0 km/h (0 Bft) N 0,28 h 0,076 mm 97 W/m 12,3 C 20,3 C 0,1 km/h (0 Bft)
08/05/2022 20:00 19,1 C 66 % 1017,8 hPa 0,0 mm 0,0 km/h (0 Bft) N 0,00 h 0,076 mm 17 W/m 12,6 C 19,1 C 0,0 km/h (0 Bft)
08/05/2022 21:00 17,4 C 72 % 1018,4 hPa 0,0 mm 0,0 km/h (0 Bft) N 0,00 h 0,025 mm 0 W/m 12,2 C 17,4 C 0,0 km/h (0 Bft)
08/05/2022 22:00 16,4 C 75 % 1018,8 hPa 0,0 mm 0,0 km/h (0 Bft) N 0,00 h 0,000 mm 0 W/m 12,0 C 16,4 C 0,0 km/h (0 Bft)
08/05/2022 23:00 15,8 C 75 % 1019,2 hPa 0,0 mm 0,0 km/h (0 Bft) E 0,00 h 0,025 mm 0 W/m 11,3 C 15,8 C 0,2 km/h (0 Bft)
Min-Date _ 02/05/22 08/05/22 03/05/22 - 02/05/22 - - - - 04/05/22 02/05/22 02/05/22
_ Min-Heure 06:23 16:15 05:45 - 00:00 - - - - 06:20 06:23 00:00
Minimum _ 9,9 C 44 % 1012,3 hPa - 0,0 km/h (0 Bft) - - - - 7,2 C 9,9 C 0,0 km/h (0 Bft)
Max-Date _ 07/05/22 02/05/22 08/05/22 02/05/22 05/05/22 - 02/05/22 07/05/22 07/05/22 08/05/22 07/05/22 05/05/22
_ Max-Heure 13:14 00:00 23:15 05:56 16:29 - 08:48 14:00 14:07 13:43 13:14 14:59
Maximum _ 24,4 C 94 % 1019,2 hPa 0,2 mm 16,1 km/h
E-SE (3 Bft)
- 0,02 h 0,559 mm 1137 W/m 16,0 C 24,4 C 29,0 km/h
E (5 Bft)
Moyenne _ 16,5 C 75 % 1015,2 hPa #0,4 mm 0,9 km/h (0 Bft) E #34:39 h #19,619 mm 294 W/m 11,8 C 16,5 C 2,2 km/h (1 Bft)
Roquefort les pins